Time;durP1;ratioP1;P1;durP2;ratioP2;P2;SDS_P1;SDS_P2;PMS_P1;PMS_P2;Temp;Humidity;BMP_temperature;BMP_pressure;BME280_temperature;BME280_humidity;BME280_pressure;Samples;Min_cycle;Max_cycle;Signal;HPM_P1;HPM_P2
2022/12/30 00:01:18;;;;;;;1.02;0.80;;;12.40;57.40;;;11.35;59.92;100520.94;12244094;19;20054;-82
2022/12/30 00:05:19;;;;;;;0.80;0.80;;;12.40;57.40;;;11.31;59.99;100520.28;12248858;19;20014;-82
2022/12/30 00:09:21;;;;;;;1.13;0.85;;;12.40;57.50;;;11.31;59.86;100530.72;12245968;19;20026;-82
2022/12/30 00:35:59;;;;;;;1.08;0.60;;;12.30;57.20;;;11.18;60.10;100550.72;12258366;19;20018;-82
2022/12/30 00:40:01;;;;;;;0.93;0.77;;;12.40;57.40;;;11.14;60.05;100544.00;12252903;19;20085;-82
2022/12/30 00:44:03;;;;;;;2.53;0.82;;;12.30;57.30;;;11.00;59.90;100531.78;12254440;19;20022;-82
2022/12/30 00:56:47;;;;;;;1.23;1.13;;;12.30;57.30;;;11.23;59.97;100614.00;12256432;19;20025;-82
2022/12/30 01:00:48;;;;;;;0.65;0.65;;;12.30;57.50;;;11.21;59.91;100611.50;12253040;19;20034;-82
2022/12/30 01:04:50;;;;;;;0.77;0.65;;;12.30;57.60;;;11.18;59.92;100602.97;12254038;19;20003;-82
2022/12/30 01:08:52;;;;;;;0.98;0.82;;;12.30;57.60;;;11.22;59.92;100604.50;12255618;19;20015;-82
2022/12/30 01:12:53;;;;;;;0.70;0.70;;;12.50;57.70;;;11.17;59.96;100606.53;12253716;19;20086;-82
2022/12/30 01:16:55;;;;;;;1.13;0.98;;;12.30;57.60;;;11.06;59.92;100599.34;12254148;19;20485;-83
2022/12/30 01:21:02;;;;;;;1.17;0.80;;;12.20;57.60;;;11.03;59.98;100610.81;12250985;19;20028;-83
2022/12/30 01:25:05;;;;;;;1.13;0.70;;;12.30;57.60;;;11.12;59.91;100629.50;12256590;19;20014;-82
2022/12/30 01:29:06;;;;;;;2.28;0.98;;;12.20;57.60;;;11.10;59.99;100636.56;12251112;19;20093;-83
2022/12/30 01:33:08;;;;;;;0.93;0.77;;;12.20;57.60;;;10.93;59.91;100620.09;12255572;19;20010;-83
2022/12/30 01:37:10;;;;;;;1.20;0.77;;;12.20;57.50;;;11.03;59.82;100652.63;12253934;19;20010;-83
2022/12/30 01:41:12;;;;;;;1.75;0.90;;;12.20;57.60;;;11.09;59.86;100661.88;12246151;19;20045;-83
2022/12/30 01:45:25;;;;;;;1.05;0.75;;;12.20;57.90;;;11.02;59.77;100666.63;12254697;19;20330;-83
2022/12/30 01:49:27;;;;;;;1.48;0.70;;;12.10;57.60;;;11.00;59.83;100671.09;12252624;19;20037;-83
2022/12/30 01:53:39;;;;;;;1.40;0.90;;;12.10;57.50;;;10.90;59.88;100661.25;12253138;19;20014;-82
2022/12/30 01:57:44;;;;;;;1.80;0.82;;;12.10;57.50;;;10.84;59.74;100678.97;12252798;19;20033;-83
2022/12/30 02:01:47;;;;;;;;;;;12.00;57.50;;;10.85;59.83;100690.25;12248271;19;20007;-83
2022/12/30 02:05:50;;;;;;;1.42;0.73;;;12.00;57.80;;;10.77;59.97;100676.78;12248330;19;20350;-82
2022/12/30 02:09:56;;;;;;;0.90;0.90;;;12.00;57.70;;;10.84;59.83;100710.31;12249101;19;20015;-82
2022/12/30 02:13:58;;;;;;;1.35;0.88;;;12.00;57.60;;;10.80;59.90;100716.66;12249557;19;20010;-82
2022/12/30 02:18:42;;;;;;;1.88;0.85;;;11.90;57.60;;;10.61;59.94;100711.63;12252081;19;20086;-83
2022/12/30 02:23:10;;;;;;;2.38;0.80;;;11.90;57.50;;;10.68;59.78;100719.09;12248050;19;20048;-82
2022/12/30 02:27:45;;;;;;;1.70;0.70;;;11.80;57.50;;;10.55;59.69;100708.50;12251823;19;20112;-82
2022/12/30 02:32:15;;;;;;;0.98;0.70;;;11.80;57.60;;;10.67;60.04;100730.50;12245150;19;20365;-82
2022/12/30 02:36:29;;;;;;;2.47;0.70;;;11.80;57.60;;;10.58;59.88;100716.16;12250372;19;20010;-82
2022/12/30 02:45:49;;;;;;;0.88;0.60;;;11.80;57.70;;;10.63;59.98;100728.03;12248897;19;20022;-82
2022/12/30 02:54:33;;;;;;;1.35;0.80;;;11.70;57.70;;;10.55;59.88;100721.53;12250461;19;20093;-83
2022/12/30 02:58:42;;;;;;;3.00;1.00;;;11.80;57.70;;;10.65;59.95;100730.56;12248346;19;20035;-83
2022/12/30 03:07:56;;;;;;;2.97;1.00;;;11.70;57.70;;;10.46;59.90;100717.69;12251109;19;20006;-83
2022/12/30 03:12:27;;;;;;;5.50;0.80;;;11.70;57.70;;;10.60;59.81;100743.03;12248328;19;20048;-83
2022/12/30 03:16:47;;;;;;;2.05;0.80;;;11.70;57.60;;;10.59;60.03;100751.78;12245542;19;20022;-82
2022/12/30 03:20:51;;;;;;;0.98;0.75;;;11.70;57.60;;;10.56;59.80;100739.75;12245721;19;20070;-82
2022/12/30 03:29:18;;;;;;;1.65;0.80;;;11.70;57.60;;;10.48;59.98;100768.03;12244940;19;20091;-82
2022/12/30 03:33:21;;;;;;;1.67;1.00;;;11.70;57.50;;;10.40;59.85;100751.97;12248045;19;20465;-82
2022/12/30 03:37:39;;;;;;;3.05;1.13;;;11.60;57.40;;;10.40;59.85;100758.00;12247806;19;20361;-82
2022/12/30 03:41:43;;;;;;;1.30;0.93;;;11.60;57.40;;;10.41;59.83;100777.13;12242540;19;20021;-82
2022/12/30 03:45:45;;;;;;;0.80;0.80;;;11.60;57.40;;;10.42;60.00;100784.00;12246267;19;20022;-83
2022/12/30 03:49:47;;;;;;;2.47;1.00;;;11.60;57.40;;;10.38;59.95;100779.91;12243922;19;20409;-83
2022/12/30 03:53:49;;;;;;;1.58;0.98;;;11.50;57.20;;;10.40;59.92;100784.13;12245000;19;20019;-82
2022/12/30 03:57:51;;;;;;;3.55;0.80;;;11.50;57.30;;;10.39;59.87;100802.47;12248319;19;20450;-82
2022/12/30 04:01:53;;;;;;;4.18;1.05;;;11.50;57.20;;;10.29;59.77;100796.03;12243828;19;20039;-83
2022/12/30 04:05:55;;;;;;;2.67;0.90;;;11.40;57.20;;;10.28;59.86;100791.75;12256305;19;20481;-83
2022/12/30 04:09:57;;;;;;;1.98;1.00;;;11.40;57.20;;;10.24;59.76;100804.09;12257731;19;20018;-82
2022/12/30 04:13:59;;;;;;;3.00;0.80;;;11.40;57.20;;;10.23;59.89;100812.84;12258603;19;20536;-82
2022/12/30 04:18:01;;;;;;;2.85;0.93;;;11.30;57.20;;;10.11;59.73;100790.84;12258763;19;20010;-82
2022/12/30 04:22:03;;;;;;;1.38;0.98;;;11.30;57.20;;;10.16;59.84;100806.25;12258655;19;20002;-82
2022/12/30 04:26:05;;;;;;;2.28;0.80;;;11.30;57.20;;;9.84;59.80;100767.03;12259656;19;20452;-82
2022/12/30 04:30:07;;;;;;;2.10;0.90;;;11.30;57.30;;;10.04;59.73;100810.34;12255903;19;20026;-82
2022/12/30 04:34:12;;;;;;;1.08;0.73;;;11.20;57.30;;;10.02;59.72;100814.81;12256819;19;20018;-82
2022/12/30 04:38:13;;;;;;;1.42;1.02;;;11.20;57.30;;;10.02;59.72;100827.84;12259478;19;20074;-83
2022/12/30 04:42:15;;;;;;;1.52;1.00;;;11.20;57.30;;;10.02;59.65;100840.03;12253422;19;20449;-82
2022/12/30 04:46:17;;;;;;;1.65;0.70;;;11.20;57.20;;;9.74;59.73;100805.75;12256382;19;20017;-82
2022/12/30 04:50:19;;;;;;;2.20;1.00;;;11.10;57.20;;;9.98;59.75;100852.41;12253344;19;20427;-82
2022/12/30 04:54:21;;;;;;;1.52;0.65;;;11.20;57.30;;;9.94;59.64;100843.06;12254388;19;20023;-82
2022/12/30 04:58:24;;;;;;;1.23;0.70;;;11.00;57.30;;;9.86;59.65;100842.59;12257117;19;20047;-82
2022/12/30 05:02:26;;;;;;;4.72;0.85;;;11.00;57.30;;;9.75;59.69;100838.75;12256306;19;20023;-82
2022/12/30 05:06:28;;;;;;;1.02;0.70;;;11.00;57.30;;;9.82;59.90;100854.94;12256218;19;20025;-82
2022/12/30 05:10:32;;;;;;;0.95;0.70;;;10.90;57.30;;;9.44;59.61;100810.75;12253270;19;20476;-82
2022/12/30 05:14:34;;;;;;;1.63;0.85;;;10.90;57.40;;;9.80;59.75;100875.03;12259635;19;20365;-82
2022/12/30 05:18:35;;;;;;;3.08;1.25;;;10.90;57.40;;;9.70;59.63;100861.63;12257988;19;20500;-82
2022/12/30 05:22:37;;;;;;;0.90;0.77;;;10.90;57.40;;;9.79;59.67;100885.53;12255509;19;20010;-83
2022/12/30 05:26:39;;;;;;;2.05;1.02;;;10.90;57.40;;;9.59;59.69;100855.25;12258709;19;20015;-83
2022/12/30 05:30:41;;;;;;;4.25;0.77;;;10.80;57.30;;;9.70;59.68;100879.88;12253108;19;20444;-82
2022/12/30 05:34:43;;;;;;;1.42;0.82;;;10.80;57.30;;;9.58;59.77;100861.34;12254293;19;20018;-83
2022/12/30 05:38:45;;;;;;;1.73;0.80;;;10.80;57.40;;;9.65;59.78;100881.84;12255368;19;20074;-82
2022/12/30 05:42:47;;;;;;;3.35;0.93;;;10.80;57.40;;;9.62;59.75;100895.03;12252192;19;20019;-83
2022/12/30 05:46:49;;;;;;;1.10;0.90;;;10.80;57.40;;;9.64;59.62;100908.84;12253513;19;20512;-82
2022/12/30 05:50:51;;;;;;;2.30;1.33;;;10.70;57.30;;;9.57;59.70;100897.03;12251857;19;20011;-82
2022/12/30 05:54:52;;;;;;;2.47;1.00;;;10.70;57.30;;;9.54;59.68;100910.22;12255527;19;20020;-82
2022/12/30 05:58:55;;;;;;;1.10;1.00;;;10.70;57.30;;;9.26;59.76;100882.84;12250907;19;20457;-82
2022/12/30 06:02:57;;;;;;;3.53;1.08;;;10.60;57.30;;;9.45;59.63;100928.88;12249860;19;20024;-82
2022/12/30 06:06:59;;;;;;;0.93;0.90;;;10.80;57.40;;;9.42;59.71;100934.22;12254299;19;20018;-83
2022/12/30 06:11:01;;;;;;;3.13;1.00;;;10.60;57.30;;;9.39;59.99;100937.00;12250927;19;20356;-82
2022/12/30 06:15:03;;;;;;;1.00;0.90;;;10.60;57.40;;;9.32;59.84;100941.66;12253521;19;20065;-82
2022/12/30 06:19:04;;;;;;;1.33;0.88;;;10.50;57.30;;;9.28;59.61;100956.56;12256748;19;20029;-82
2022/12/30 06:23:07;;;;;;;1.38;0.80;;;10.50;57.40;;;9.26;59.68;100957.56;12251319;19;20042;-82
2022/12/30 06:27:09;;;;;;;1.63;0.82;;;10.50;57.40;;;9.22;59.85;100962.06;12251879;19;20013;-82
2022/12/30 06:31:11;;;;;;;1.48;0.82;;;10.40;57.40;;;9.26;59.65;100979.28;12250937;19;20480;-82
2022/12/30 06:35:13;;;;;;;2.22;0.90;;;10.40;57.40;;;9.16;59.71;100977.16;12259908;19;20354;-82
2022/12/30 06:39:15;;;;;;;2.70;1.00;;;10.30;57.40;;;9.20;59.89;100984.75;12255736;19;20022;-82
2022/12/30 06:43:17;;;;;;;2.80;1.35;;;10.30;57.40;;;9.15;59.82;100993.69;12256258;19;20017;-83
2022/12/30 06:47:19;;;;;;;2.35;0.80;;;10.30;57.40;;;9.13;59.74;100993.75;12255904;19;20086;-82
2022/12/30 06:51:20;;;;;;;1.85;0.82;;;10.30;57.50;;;9.06;59.67;101001.00;12251185;19;20385;-83
2022/12/30 06:55:22;;;;;;;3.00;1.10;;;10.20;57.50;;;9.09;59.91;101000.84;12254714;19;20015;-82
2022/12/30 06:59:24;;;;;;;4.22;1.10;;;10.20;57.50;;;9.12;59.89;101005.09;12253925;19;20026;-81
2022/12/30 07:03:26;;;;;;;0.88;0.77;;;10.20;57.50;;;9.05;59.75;101008.91;12252445;19;20026;-83
2022/12/30 07:07:27;;;;;;;2.97;1.13;;;10.20;57.50;;;9.08;60.07;101024.38;12254892;19;20515;-82
2022/12/30 07:11:29;;;;;;;1.75;1.02;;;10.20;57.50;;;9.00;59.82;101014.28;12251974;19;20010;-81
2022/12/30 07:15:31;;;;;;;1.08;0.90;;;10.20;57.60;;;8.97;59.97;101011.84;12253278;19;20378;-83
2022/12/30 07:19:32;;;;;;;3.50;1.40;;;10.20;57.50;;;9.03;59.70;101031.56;12250413;19;20077;-82
2022/12/30 07:23:34;;;;;;;1.90;1.48;;;10.20;57.50;;;9.06;59.70;101049.66;12252190;19;20014;-82
2022/12/30 07:27:37;;;;;;;2.55;0.95;;;10.20;57.60;;;8.96;59.69;101043.13;12253136;19;20015;-82
2022/12/30 07:31:39;;;;;;;1.30;0.80;;;10.10;57.50;;;8.95;59.71;101050.13;12250649;19;20006;-82
2022/12/30 07:35:41;;;;;;;1.15;0.90;;;10.10;57.40;;;8.88;59.84;101058.25;12251917;19;20353;-82
2022/12/30 07:39:43;;;;;;;3.28;1.23;;;10.10;57.40;;;8.96;59.72;101080.44;12248637;19;20010;-82
2022/12/30 07:43:45;;;;;;;2.15;0.93;;;10.10;57.40;;;8.94;59.94;101077.09;12251223;19;20082;-82
2022/12/30 07:47:47;;;;;;;3.47;1.00;;;10.00;57.40;;;8.92;59.88;101083.28;12251420;19;20410;-81
2022/12/30 07:51:49;;;;;;;1.20;0.88;;;10.00;57.40;;;8.90;59.80;101078.09;12251499;19;20015;-81
2022/12/30 07:55:50;;;;;;;1.42;0.95;;;10.00;57.50;;;8.90;59.89;101092.91;12254111;19;20006;-81
2022/12/30 07:59:52;;;;;;;3.42;1.10;;;10.00;57.40;;;8.74;59.84;101072.69;12253096;19;20049;-81
2022/12/30 08:03:54;;;;;;;1.50;1.17;;;10.00;57.40;;;8.78;60.00;101083.84;12252153;19;20022;-82
2022/12/30 08:07:56;;;;;;;3.67;1.40;;;10.00;57.50;;;8.81;59.63;101088.94;12251799;19;20559;-81
2022/12/30 08:11:58;;;;;;;4.75;1.70;;;10.00;57.50;;;8.84;59.77;101089.63;12249207;19;20018;-83
2022/12/30 08:16:12;;;;;;;5.63;1.33;;;10.20;57.60;;;8.80;59.73;101102.84;12247859;19;20022;-84
2022/12/30 08:20:14;;;;;;;2.83;1.40;;;10.00;57.50;;;8.80;59.86;101102.84;12249317;19;19999;-84
2022/12/30 08:24:15;;;;;;;3.50;1.70;;;9.90;57.40;;;8.78;59.89;101121.16;12242977;19;20047;-82
2022/12/30 08:28:17;;;;;;;2.00;1.40;;;9.90;57.40;;;8.79;59.88;101133.25;12254841;19;20026;-81
2022/12/30 08:32:19;;;;;;;1.83;1.20;;;9.90;57.50;;;8.76;59.80;101135.97;12258346;19;20006;-81
2022/12/30 08:36:26;;;;;;;2.88;1.30;;;9.90;57.80;;;8.64;59.73;101113.03;12263662;19;19999;-82
2022/12/30 08:40:27;;;;;;;3.50;1.15;;;9.90;57.50;;;8.60;59.93;101108.88;12253641;19;20048;-82
2022/12/30 08:44:29;;;;;;;1.25;1.00;;;9.90;57.50;;;8.65;59.90;101125.16;12253264;19;20070;-82
2022/12/30 08:48:32;;;;;;;2.13;1.08;;;9.80;57.50;;;8.61;59.85;101113.16;12256978;19;20014;-81
2022/12/30 08:52:35;;;;;;;3.20;1.20;;;9.80;57.50;;;8.66;59.80;101132.06;12268140;19;20022;-82
2022/12/30 08:56:39;;;;;;;3.70;1.40;;;9.80;57.60;;;8.67;59.84;101138.97;12269531;19;20117;-83
2022/12/30 09:00:41;;;;;;;3.40;1.00;;;9.80;57.60;;;8.68;60.02;101135.44;12267826;19;20028;-81
2022/12/30 09:04:42;;;;;;;2.50;1.05;;;9.80;57.60;;;8.64;59.94;101126.06;12256941;19;20014;-81
2022/12/30 09:08:45;;;;;;;4.03;1.33;;;9.90;57.70;;;8.73;60.01;101136.09;12257138;19;20086;-81
2022/12/30 09:12:47;;;;;;;7.13;1.73;;;9.90;57.70;;;8.76;60.16;101143.78;12259305;19;20010;-81
2022/12/30 09:16:49;;;;;;;2.60;1.27;;;9.90;57.70;;;8.74;59.91;101134.34;12259385;19;20686;-82
2022/12/30 09:20:51;;;;;;;2.50;1.40;;;9.90;57.70;;;8.68;59.99;101113.78;12253280;19;20394;-82
2022/12/30 09:24:53;;;;;;;2.38;1.00;;;10.00;57.70;;;8.83;60.10;101150.44;12250185;19;20015;-83
2022/12/30 09:28:56;;;;;;;3.28;1.33;;;10.00;57.70;;;8.69;59.96;101118.91;12252764;19;20030;-83
2022/12/30 09:32:58;;;;;;;3.17;1.30;;;10.00;57.70;;;8.78;60.24;101118.53;12253043;19;20085;-82
2022/12/30 09:37:00;;;;;;;2.00;0.98;;;10.10;57.70;;;8.95;60.13;101137.81;12257246;19;20022;-82
2022/12/30 09:46:43;;;;;;;3.65;0.98;;;10.20;57.60;;;8.96;60.08;101114.31;12254529;19;20017;-82
2022/12/30 09:51:01;;;;;;;1.52;1.15;;;10.30;57.70;;;9.08;59.99;101139.00;12251499;19;20035;-82
2022/12/30 09:55:22;;;;;;;4.78;1.55;;;10.30;57.60;;;9.19;60.18;101143.75;12254371;19;20359;-83
2022/12/30 09:59:32;;;;;;;2.03;0.63;;;10.40;57.50;;;9.26;60.03;101133.03;12251295;19;20077;-82
2022/12/30 10:03:34;;;;;;;5.30;1.13;;;10.50;57.60;;;9.22;60.15;101114.97;12248613;19;20018;-82
2022/12/30 10:07:59;;;;;;;3.22;1.05;;;10.50;57.60;;;9.38;60.08;101130.78;12254110;19;20032;-82
2022/12/30 10:12:34;;;;;;;0.80;0.80;;;10.60;57.50;;;9.46;60.22;101115.66;12253962;19;20006;-82
2022/12/30 10:17:17;;;;;;;0.87;0.80;;;10.70;57.40;;;9.53;60.20;101106.63;12255012;19;20022;-82
2022/12/30 10:21:54;;;;;;;4.47;1.20;;;10.80;57.50;;;9.62;60.26;101103.63;12250951;19;20015;-81
2022/12/30 10:26:18;;;;;;;1.10;1.00;;;10.90;57.40;;;9.69;60.12;101105.06;12254063;19;20002;-82
2022/12/30 10:30:32;;;;;;;3.45;1.73;;;10.90;57.20;;;9.74;60.26;101094.38;12250710;19;20022;-81
2022/12/30 10:34:34;;;;;;;9.25;1.17;;;11.00;57.00;;;9.69;60.11;101068.53;12250599;19;20371;-82
2022/12/30 10:38:38;;;;;;;4.28;1.58;;;11.10;57.20;;;9.88;60.01;101086.78;12251280;19;20002;-82
2022/12/30 10:43:02;;;;;;;5.63;2.10;;;11.20;57.10;;;10.01;59.97;101100.09;12249892;19;20666;-82
2022/12/30 10:47:18;;;;;;;2.05;1.00;;;11.30;57.00;;;10.12;60.10;101102.19;12251014;19;20358;-82
2022/12/30 10:51:20;;;;;;;3.25;1.25;;;11.40;57.00;;;10.18;59.97;101089.72;12247586;19;20081;-82
2022/12/30 10:55:31;;;;;;;1.88;0.95;;;11.40;56.80;;;10.17;59.94;101063.69;12249373;19;20039;-82
2022/12/30 10:59:34;;;;;;;1.88;0.90;;;11.50;56.80;;;10.25;60.10;101071.16;12248129;19;20018;-81
2022/12/30 11:03:49;;;;;;;3.60;1.50;;;11.60;56.80;;;10.18;59.84;101050.56;12248825;19;20006;-82
2022/12/30 11:07:56;;;;;;;2.10;1.00;;;11.60;56.40;;;10.37;59.91;101066.22;12249789;19;20017;-82
2022/12/30 11:16:31;;;;;;;3.58;1.10;;;11.70;56.60;;;10.40;60.05;101054.78;12247512;19;20022;-82
2022/12/30 11:20:38;;;;;;;5.38;0.93;;;11.70;56.30;;;10.42;59.88;101052.91;12249559;19;20021;-82
2022/12/30 11:24:55;;;;;;;2.28;0.90;;;11.80;56.40;;;10.49;59.79;101059.53;12250069;19;20086;-82
2022/12/30 11:29:16;;;;;;;1.65;0.95;;;11.80;56.30;;;10.51;59.77;101055.09;12249803;19;20014;-82
2022/12/30 11:33:54;;;;;;;3.15;1.13;;;11.90;56.40;;;10.59;59.77;101060.78;12248588;19;20019;-82
2022/12/30 11:37:56;;;;;;;3.92;1.30;;;11.90;56.30;;;10.60;59.74;101038.13;12249891;19;20337;-82
2022/12/30 11:42:01;;;;;;;4.38;0.90;;;12.00;56.40;;;10.73;59.83;101038.34;12249560;19;20476;-83
2022/12/30 11:46:17;;;;;;;4.93;1.50;;;12.00;56.20;;;10.69;59.72;101029.81;12248752;19;20081;-83
2022/12/30 11:50:19;;;;;;;;;;;12.00;56.00;;;10.67;59.81;101023.84;12248648;19;20078;-82
2022/12/30 11:54:25;;;;;;;1.13;0.90;;;12.00;56.40;;;10.37;59.63;100961.78;12246823;19;19911;-82
2022/12/30 11:58:37;;;;;;;4.43;1.00;;;12.10;56.10;;;10.76;59.55;101028.56;12248419;19;20472;-82
2022/12/30 12:02:56;;;;;;;2.60;1.15;;;12.10;55.80;;;10.58;59.50;100991.16;12247798;19;20018;-82
2022/12/30 12:06:59;;;;;;;1.30;0.90;;;12.10;55.80;;;10.84;59.46;101021.19;12251188;19;20030;-82
2022/12/30 12:11:12;;;;;;;2.65;1.27;;;12.10;55.80;;;10.91;59.38;101021.72;12252668;19;20018;-82
2022/12/30 12:15:26;;;;;;;6.07;2.40;;;12.20;55.90;;;10.83;59.49;100998.59;12251207;19;20014;-82
2022/12/30 12:19:55;;;;;;;3.08;0.80;;;12.20;56.00;;;10.96;59.34;101011.03;12249822;19;20014;-81
2022/12/30 12:24:32;;;;;;;1.85;1.00;;;12.20;56.00;;;10.99;59.56;101009.13;12248682;19;20473;-81
2022/12/30 12:28:41;;;;;;;2.90;1.10;;;12.20;56.00;;;10.97;59.30;100987.44;12262300;19;20014;-82
2022/12/30 12:33:02;;;;;;;3.72;1.20;;;12.30;55.80;;;11.04;59.17;100991.44;12258222;19;20015;-82
2022/12/30 12:37:34;;;;;;;4.88;1.17;;;12.30;55.90;;;11.06;59.19;101009.63;12259107;19;20038;-82
2022/12/30 12:42:13;;;;;;;2.25;1.00;;;12.30;55.70;;;11.05;59.35;100995.72;12259703;19;20448;-82
2022/12/30 12:46:46;;;;;;;3.72;1.00;;;12.30;55.80;;;11.08;59.37;101007.78;12253171;19;20097;-82
2022/12/30 12:51:21;;;;;;;3.13;1.20;;;12.30;55.80;;;11.09;59.24;101004.22;12253057;19;20007;-82
2022/12/30 12:55:51;;;;;;;2.92;1.30;;;12.30;55.90;;;11.11;59.12;100999.78;12256318;19;20533;-82
2022/12/30 13:00:13;;;;;;;2.08;1.00;;;12.40;55.00;;;11.11;59.28;100994.53;12257153;19;20017;-82
2022/12/30 13:04:40;;;;;;;3.28;1.92;;;12.30;55.50;;;11.11;59.07;100978.03;12252029;19;20015;-82
2022/12/30 13:09:16;;;;;;;1.40;0.85;;;12.40;55.70;;;11.14;58.89;100989.16;12246037;19;20532;-82
2022/12/30 13:13:39;;;;;;;3.65;1.23;;;12.40;55.40;;;11.12;59.14;100966.63;12239380;19;20021;-82
2022/12/30 13:17:44;;;;;;;3.15;1.00;;;12.40;55.60;;;11.14;59.10;100960.41;12246056;19;20014;-82
2022/12/30 13:21:51;;;;;;;;;;;12.40;55.50;;;11.07;59.10;100945.97;12240673;19;20540;-82
2022/12/30 13:25:58;;;;;;;1.85;0.88;;;12.40;56.00;;;11.14;59.14;100951.72;12244897;19;19929;-82
2022/12/30 13:30:01;;;;;;;2.88;1.65;;;12.40;55.40;;;11.17;59.12;100941.09;12249115;19;20011;-82
2022/12/30 13:34:10;;;;;;;3.67;1.45;;;12.40;55.50;;;11.21;59.09;100943.47;12249647;19;20018;-82
2022/12/30 13:38:45;;;;;;;5.32;1.85;;;12.40;55.80;;;11.20;59.07;100947.00;12252850;19;20035;-81
2022/12/30 13:43:54;;;;;;;5.73;1.80;;;12.40;55.60;;;11.18;59.04;100940.16;12253652;19;20090;-82
2022/12/30 13:48:06;;;;;;;3.15;1.20;;;12.40;55.60;;;11.10;59.01;100924.03;12252649;19;20267;-82
2022/12/30 13:52:23;;;;;;;4.57;1.60;;;12.40;55.50;;;11.17;58.98;100920.19;12253055;19;20036;-82
2022/12/30 13:56:38;;;;;;;4.78;1.40;;;12.40;55.30;;;11.20;58.91;100920.00;12251477;19;20015;-83
2022/12/30 14:00:42;;;;;;;4.38;2.28;;;12.40;55.50;;;11.11;58.89;100883.94;12250018;19;20043;-83
2022/12/30 14:04:55;;;;;;;6.85;2.55;;;12.40;55.50;;;11.18;58.70;100901.81;12249054;19;20471;-83
2022/12/30 14:09:14;;;;;;;15.43;7.80;;;12.40;55.30;;;11.19;58.68;100886.97;12252632;19;20045;-82
2022/12/30 14:13:37;;;;;;;10.65;5.32;;;12.40;55.50;;;11.03;58.82;100872.13;12252515;19;20036;-83
2022/12/30 14:17:39;;;;;;;10.23;4.22;;;12.30;55.50;;;11.10;58.84;100885.72;12252445;19;20334;-82
2022/12/30 14:21:53;;;;;;;7.03;3.80;;;12.40;55.60;;;11.10;58.77;100888.31;12247267;19;20357;-83
2022/12/30 14:26:17;;;;;;;10.65;3.25;;;12.30;55.50;;;11.11;58.72;100894.38;12249555;19;20105;-82
2022/12/30 14:30:40;;;;;;;5.75;2.70;;;12.30;55.50;;;10.96;58.53;100865.53;12247508;19;20484;-82
2022/12/30 14:34:44;;;;;;;6.85;2.55;;;12.30;55.50;;;11.09;58.72;100884.00;12249242;19;20023;-83
2022/12/30 14:38:49;;;;;;;4.70;1.98;;;12.30;55.50;;;11.05;58.65;100883.34;12248540;19;20029;-84
2022/12/30 14:42:53;;;;;;;8.60;3.53;;;12.20;55.30;;;10.92;58.52;100863.19;12249595;19;20095;-83
2022/12/30 14:47:08;;;;;;;6.55;2.55;;;12.20;55.40;;;10.87;58.44;100859.97;12250206;19;20028;-83
2022/12/30 14:51:11;;;;;;;6.32;3.08;;;12.10;55.50;;;10.83;58.60;100851.47;12246487;19;20031;-83
2022/12/30 14:55:33;;;;;;;8.68;4.50;;;12.10;55.30;;;10.76;58.45;100850.13;12248976;19;20014;-82
2022/12/30 15:00:12;;;;;;;7.82;3.83;;;12.00;55.50;;;10.82;58.63;100857.63;12244598;19;20066;-83
2022/12/30 15:04:16;;;;;;;6.47;2.13;;;12.00;55.20;;;10.78;58.50;100849.09;12240224;19;20014;-83
2022/12/30 15:08:18;;;;;;;3.38;1.85;;;11.90;55.60;;;10.79;58.44;100847.34;12239304;19;20078;-83
2022/12/30 15:12:24;;;;;;;5.25;2.13;;;12.00;55.70;;;10.67;58.42;100821.91;12249725;19;20022;-82
2022/12/30 15:16:31;;;;;;;3.22;1.63;;;11.80;55.60;;;10.72;58.39;100831.16;12244785;19;20074;-83
2022/12/30 15:20:33;;;;;;;2.05;1.00;;;11.80;56.00;;;10.65;58.51;100821.13;12242352;19;20018;-83
2022/12/30 15:24:43;;;;;;;4.72;2.50;;;12.00;55.60;;;10.67;58.55;100835.78;12241657;19;20010;-83
2022/12/30 15:28:45;;;;;;;6.10;2.08;;;11.80;55.60;;;10.59;58.21;100817.91;12247296;19;20034;-83
2022/12/30 15:33:06;;;;;;;2.78;2.13;;;11.70;55.30;;;10.60;58.38;100823.97;12246282;19;20010;-83
2022/12/30 15:37:32;;;;;;;4.05;2.20;;;11.70;55.60;;;10.42;58.41;100797.06;12246669;19;20018;-82
2022/12/30 15:41:37;;;;;;;8.07;4.00;;;11.70;55.60;;;10.46;58.38;100789.94;12240786;19;20490;-83
2022/12/30 15:46:00;;;;;;;4.68;3.80;;;11.60;55.50;;;10.49;58.25;100806.28;12244488;19;20669;-83
2022/12/30 15:50:02;;;;;;;7.47;5.53;;;11.60;55.50;;;10.40;58.44;100785.88;12242014;19;20472;-83
2022/12/30 15:54:20;;;;;;;7.05;4.55;;;11.60;55.60;;;10.36;58.42;100785.19;12249312;19;20351;-83
2022/12/30 15:58:38;;;;;;;4.40;2.77;;;11.60;55.70;;;10.30;58.32;100774.25;12099220;19;2868378;-82
2022/12/30 16:02:42;;;;;;;3.60;2.17;;;11.50;55.30;;;10.34;58.54;100757.47;12257555;19;20018;-82
2022/12/30 16:06:51;;;;;;;5.32;1.73;;;11.50;55.80;;;10.10;58.42;100715.25;12263423;19;20035;-82
2022/12/30 16:11:33;;;;;;;3.78;1.65;;;11.60;55.90;;;10.40;58.40;100757.19;12259855;19;20025;-83
2022/12/30 16:15:41;;;;;;;4.85;1.50;;;11.50;55.20;;;10.37;58.49;100736.47;12264550;19;20018;-83
2022/12/30 16:19:46;;;;;;;3.17;1.13;;;11.50;55.60;;;10.37;58.65;100734.69;12262706;19;20014;-84
2022/12/30 16:23:47;;;;;;;3.77;1.30;;;11.50;55.80;;;10.41;58.65;100730.13;12262704;19;20018;-83
2022/12/30 16:27:49;;;;;;;3.83;1.63;;;11.50;55.80;;;10.39;58.29;100718.94;12264440;19;20031;-83
2022/12/30 16:31:51;;;;;;;2.85;1.30;;;11.50;55.90;;;10.33;58.45;100709.66;12262682;19;20034;-83
2022/12/30 16:36:09;;;;;;;2.83;1.40;;;11.50;55.80;;;10.10;58.26;100661.31;12266214;19;20025;-82
2022/12/30 16:40:21;;;;;;;3.47;1.35;;;11.50;55.80;;;10.30;58.34;100691.56;12262406;19;20032;-83
2022/12/30 16:44:23;;;;;;;3.13;1.77;;;11.50;55.90;;;10.01;58.22;100635.72;12260164;19;20014;-83
2022/12/30 16:48:24;;;;;;;3.65;1.63;;;11.40;55.50;;;10.00;58.51;100622.75;12262966;19;20022;-83
2022/12/30 16:52:26;;;;;;;3.75;1.75;;;11.40;55.70;;;10.23;58.50;100656.25;12263282;19;20475;-83
2022/12/30 16:56:28;;;;;;;4.65;1.70;;;11.40;55.80;;;10.29;58.51;100681.19;12260093;19;20027;-83
2022/12/30 17:00:30;;;;;;;3.95;1.70;;;11.40;55.80;;;10.26;58.30;100670.91;12260084;19;20018;-83
2022/12/30 17:04:32;;;;;;;4.72;1.77;;;11.40;55.90;;;10.05;58.28;100628.56;12258133;19;20018;-83
2022/12/30 17:08:34;;;;;;;4.32;2.42;;;11.40;55.80;;;10.20;58.37;100646.81;12260013;19;20011;-82
2022/12/30 17:12:37;;;;;;;3.03;1.85;;;11.40;55.70;;;10.28;58.39;100649.03;12259234;19;20148;-83
2022/12/30 17:16:38;;;;;;;6.32;2.28;;;11.40;55.60;;;10.07;58.44;100604.09;12260373;19;20013;-83
2022/12/30 17:20:51;;;;;;;3.67;2.05;;;11.40;55.60;;;10.08;58.46;100615.34;12257979;19;20014;-83
2022/12/30 17:24:53;;;;;;;5.57;2.45;;;11.40;55.70;;;10.29;58.35;100650.75;12256349;19;20010;-83
2022/12/30 17:28:55;;;;;;;5.28;1.73;;;11.40;55.80;;;10.32;58.30;100649.72;12259698;19;20096;-82
2022/12/30 17:32:56;;;;;;;3.80;2.05;;;11.40;55.40;;;10.21;58.32;100626.81;12260769;19;20509;-83
2022/12/30 17:36:58;;;;;;;2.28;1.70;;;11.50;55.60;;;9.98;58.37;100562.84;12259828;19;20011;-83
2022/12/30 17:41:00;;;;;;;3.38;1.85;;;11.40;55.70;;;10.38;58.43;100620.66;12252774;19;20114;-82
2022/12/30 17:45:01;;;;;;;2.42;1.88;;;11.50;55.70;;;10.38;58.25;100599.78;12253217;19;20010;-82
2022/12/30 17:49:03;;;;;;;4.18;1.75;;;11.50;55.50;;;10.38;58.33;100602.41;12258209;19;20010;-83
2022/12/30 17:53:05;;;;;;;2.75;1.90;;;11.50;55.50;;;10.35;58.25;100592.97;12252961;19;20107;-83
2022/12/30 17:57:07;;;;;;;2.47;1.60;;;11.50;55.30;;;10.18;58.33;100559.97;12254934;19;20017;-82
2022/12/30 18:01:11;;;;;;;2.20;1.60;;;11.50;55.30;;;10.36;58.34;100589.41;12252385;19;20043;-83
2022/12/30 18:05:14;;;;;;;3.13;2.00;;;11.60;55.50;;;10.30;58.18;100583.72;12252587;19;20015;-83
2022/12/30 18:09:16;;;;;;;2.65;1.75;;;11.50;55.30;;;10.39;58.29;100583.19;12255791;19;20013;-82